createdAt,value
2022-10-23T00:01:23.262Z,27.95
2022-10-23T00:04:00.209Z,26.38
2022-10-23T00:06:28.259Z,27.57
2022-10-23T00:08:56.435Z,25.80
2022-10-23T00:11:26.300Z,26.13
2022-10-23T00:14:00.313Z,27.00
2022-10-23T00:16:28.548Z,25.08
2022-10-23T00:18:55.998Z,24.52
2022-10-23T00:21:23.861Z,25.48
2022-10-23T00:23:51.101Z,26.02
2022-10-23T00:26:18.614Z,28.05
2022-10-23T00:28:49.205Z,79.15
2022-10-23T00:31:16.784Z,39.28
2022-10-23T00:33:44.544Z,30.17
2022-10-23T00:36:12.942Z,28.33
2022-10-23T00:38:40.778Z,27.15
2022-10-23T00:41:09.326Z,25.30
2022-10-23T00:44:03.309Z,26.75
2022-10-23T00:46:30.646Z,25.88
2022-10-23T00:48:59.317Z,25.42
2022-10-23T00:51:31.449Z,26.08
2022-10-23T00:54:12.904Z,22.70
2022-10-23T00:56:47.646Z,25.05
2022-10-23T00:59:15.523Z,24.42
2022-10-23T01:01:43.235Z,22.98
2022-10-23T01:04:10.946Z,24.27
2022-10-23T01:07:01.907Z,22.30
2022-10-23T01:09:42.137Z,23.60
2022-10-23T01:12:30.498Z,22.25
2022-10-23T01:15:07.594Z,23.27
2022-10-23T01:18:00.030Z,22.35
2022-10-23T01:20:35.311Z,23.70
2022-10-23T01:23:03.162Z,24.50
2022-10-23T01:25:59.558Z,22.88
2022-10-23T01:28:53.281Z,23.08
2022-10-23T01:31:36.820Z,24.40
2022-10-23T01:34:14.176Z,21.60
2022-10-23T01:36:46.996Z,21.85
2022-10-23T01:39:28.559Z,20.75
2022-10-23T01:42:11.067Z,21.08
2022-10-23T01:44:59.451Z,20.83
2022-10-23T01:47:31.034Z,21.05
2022-10-23T01:50:06.271Z,22.05
2022-10-23T01:52:34.511Z,20.75
2022-10-23T01:55:05.756Z,21.63
2022-10-23T01:57:36.458Z,19.92
2022-10-23T02:00:15.584Z,19.88
2022-10-23T02:02:52.983Z,20.25
2022-10-23T02:05:26.326Z,18.98
2022-10-23T02:07:54.470Z,22.08
2022-10-23T02:10:27.006Z,19.90
2022-10-23T02:13:13.125Z,17.92
2022-10-23T02:15:43.296Z,18.48
2022-10-23T02:18:32.277Z,17.67
2022-10-23T02:21:07.647Z,18.05
2022-10-23T02:23:45.320Z,18.95
2022-10-23T02:26:12.314Z,18.42
2022-10-23T02:29:23.810Z,17.90
2022-10-23T02:31:50.871Z,18.95
2022-10-23T02:34:19.501Z,18.38
2022-10-23T02:36:46.780Z,18.50
2022-10-23T02:39:14.140Z,19.00
2022-10-23T02:41:51.243Z,19.33
2022-10-23T02:44:19.669Z,20.42
2022-10-23T02:47:10.246Z,19.83
2022-10-23T02:49:53.911Z,19.92
2022-10-23T02:53:00.044Z,19.35
2022-10-23T02:55:34.754Z,20.13
2022-10-23T02:58:16.516Z,19.30
2022-10-23T03:00:52.229Z,18.83
2022-10-23T03:03:34.292Z,18.67
2022-10-23T03:06:01.858Z,17.60
2022-10-23T03:08:28.982Z,16.73
2022-10-23T03:10:56.698Z,16.85
2022-10-23T03:13:24.156Z,17.83
2022-10-23T03:15:51.417Z,16.05
2022-10-23T03:18:18.472Z,17.80
2022-10-23T03:20:49.533Z,18.65
2022-10-23T03:23:16.574Z,18.38
2022-10-23T03:25:43.797Z,17.60
2022-10-23T03:28:22.276Z,17.73
2022-10-23T03:30:49.566Z,17.30
2022-10-23T03:33:16.722Z,17.73
2022-10-23T03:35:44.435Z,17.75
2022-10-23T03:38:14.402Z,17.08
2022-10-23T03:40:42.910Z,17.15
2022-10-23T03:43:13.045Z,17.58
2022-10-23T03:45:41.464Z,17.58
2022-10-23T03:48:08.720Z,17.15
2022-10-23T03:50:36.836Z,18.65
2022-10-23T03:53:05.693Z,18.38
2022-10-23T03:55:34.726Z,18.42
2022-10-23T03:58:01.969Z,20.02
2022-10-23T04:00:29.268Z,21.20
2022-10-23T04:02:56.373Z,20.08
2022-10-23T04:05:23.639Z,21.13
2022-10-23T04:07:55.230Z,21.33
2022-10-23T04:10:22.666Z,20.98
2022-10-23T04:12:50.810Z,21.02
2022-10-23T04:15:18.220Z,21.92
2022-10-23T04:17:46.810Z,24.02
2022-10-23T04:20:14.515Z,23.92
2022-10-23T04:22:42.046Z,24.85
2022-10-23T04:25:10.924Z,24.77
2022-10-23T04:27:38.133Z,25.70
2022-10-23T04:30:06.078Z,26.70
2022-10-23T04:32:33.098Z,24.40
2022-10-23T04:35:00.772Z,24.75
2022-10-23T04:37:30.607Z,25.10
2022-10-23T04:39:57.858Z,25.38
2022-10-23T04:42:24.963Z,27.10
2022-10-23T04:44:52.528Z,26.73
2022-10-23T04:47:19.752Z,28.05
2022-10-23T04:49:56.505Z,29.65
2022-10-23T04:52:57.377Z,27.92
2022-10-23T04:56:02.946Z,26.20
2022-10-23T04:58:46.070Z,30.15
2022-10-23T05:01:13.471Z,29.02
2022-10-23T05:03:40.576Z,28.25
2022-10-23T05:06:08.766Z,26.95
2022-10-23T05:09:04.864Z,27.25
2022-10-23T05:11:44.454Z,28.35
2022-10-23T05:14:11.567Z,26.98
2022-10-23T05:16:52.067Z,25.90
2022-10-23T05:19:24.448Z,26.98
2022-10-23T05:21:55.881Z,24.20
2022-10-23T05:27:00.667Z,28.25
2022-10-23T05:29:30.771Z,25.90
2022-10-23T05:32:02.507Z,28.20
2022-10-23T05:34:35.149Z,34.13
2022-10-23T05:37:05.720Z,32.70
2022-10-23T05:39:36.953Z,29.42
2022-10-23T05:42:08.885Z,31.90
2022-10-23T05:44:37.579Z,32.63
2022-10-23T05:47:19.129Z,31.13
2022-10-23T05:50:05.425Z,33.55
2022-10-23T05:53:11.544Z,33.50
2022-10-23T05:55:50.431Z,36.67
2022-10-23T05:58:50.007Z,42.58
2022-10-23T06:01:29.146Z,36.00
2022-10-23T06:04:04.917Z,35.47
2022-10-23T06:06:56.057Z,36.53
2022-10-23T06:09:23.655Z,37.22
2022-10-23T06:11:56.219Z,30.60
2022-10-23T06:14:23.963Z,32.65
2022-10-23T06:16:52.391Z,29.90
2022-10-23T06:19:20.179Z,30.10
2022-10-23T06:21:51.261Z,31.02
2022-10-23T06:24:18.532Z,31.98
2022-10-23T06:26:59.715Z,29.80
2022-10-23T06:29:38.936Z,34.85
2022-10-23T06:32:06.941Z,37.20
2022-10-23T06:34:35.121Z,32.03
2022-10-23T06:37:02.986Z,37.67
2022-10-23T06:39:47.900Z,35.20
2022-10-23T06:42:18.089Z,39.95
2022-10-23T06:44:54.276Z,69.05
2022-10-23T06:47:39.908Z,68.82
2022-10-23T06:50:26.885Z,62.78
2022-10-23T06:52:57.397Z,73.63
2022-10-23T06:55:24.921Z,73.70
2022-10-23T06:57:52.022Z,102.53
2022-10-23T07:00:21.531Z,117.65
2022-10-23T07:02:53.122Z,128.02
2022-10-23T07:05:20.777Z,57.38
2022-10-23T07:07:48.383Z,50.72
2022-10-23T07:10:22.076Z,43.55
2022-10-23T07:12:56.584Z,54.08
2022-10-23T07:15:46.807Z,45.80
2022-10-23T07:18:21.124Z,73.35
2022-10-23T07:21:09.570Z,71.00
2022-10-23T07:23:38.925Z,52.05
2022-10-23T07:26:10.548Z,46.15
2022-10-23T07:28:38.873Z,40.88
2022-10-23T07:31:06.607Z,38.42
2022-10-23T07:33:54.127Z,33.05
2022-10-23T07:36:22.373Z,30.75
2022-10-23T07:38:51.381Z,26.33
2022-10-23T07:41:19.304Z,27.38
2022-10-23T07:43:46.982Z,18.98
2022-10-23T07:46:15.148Z,17.42
2022-10-23T07:48:43.077Z,23.50
2022-10-23T07:51:15.933Z,24.48
2022-10-23T07:56:32.280Z,20.90
2022-10-23T07:59:22.922Z,22.00
2022-10-23T08:01:56.622Z,29.45
2022-10-23T08:04:37.601Z,44.03
2022-10-23T08:07:23.482Z,38.90
2022-10-23T08:09:53.820Z,40.78
2022-10-23T08:12:21.260Z,32.70
2022-10-23T08:14:48.777Z,81.93
2022-10-23T08:17:16.284Z,41.50
2022-10-23T08:20:06.397Z,37.42
2022-10-23T08:22:40.531Z,33.83
2022-10-23T08:25:09.123Z,31.42
2022-10-23T08:27:37.066Z,41.88
2022-10-23T08:30:05.062Z,28.55
2022-10-23T08:32:32.687Z,32.88
2022-10-23T08:35:04.062Z,33.22
2022-10-23T08:37:33.491Z,25.92
2022-10-23T08:40:00.842Z,48.72
2022-10-23T08:42:56.430Z,43.35
2022-10-23T08:45:43.178Z,45.97
2022-10-23T08:48:33.297Z,34.45
2022-10-23T08:51:40.246Z,37.35
2022-10-23T08:54:40.384Z,40.10
2022-10-23T08:57:15.054Z,39.95
2022-10-23T09:02:43.129Z,31.35
2022-10-23T09:05:39.458Z,39.03
2022-10-23T09:08:10.144Z,37.25
2022-10-23T09:10:58.816Z,30.85
2022-10-23T09:13:47.914Z,30.95
2022-10-23T09:16:18.036Z,30.27
2022-10-23T09:18:48.347Z,30.63
2022-10-23T09:21:16.300Z,33.38
2022-10-23T09:23:43.598Z,29.90
2022-10-23T09:26:19.068Z,28.35
2022-10-23T09:29:14.346Z,27.90
2022-10-23T09:31:52.815Z,30.60
2022-10-23T09:34:24.671Z,27.08
2022-10-23T09:39:34.118Z,28.58
2022-10-23T09:42:13.948Z,25.55
2022-10-23T09:44:50.187Z,40.97
2022-10-23T09:47:24.368Z,28.38
2022-10-23T09:49:57.112Z,29.67
2022-10-23T09:52:35.846Z,30.15
2022-10-23T09:55:19.009Z,41.20
2022-10-23T09:57:47.322Z,47.80
2022-10-23T10:00:20.587Z,35.75
2022-10-23T10:03:19.340Z,55.10
2022-10-23T10:06:03.005Z,33.42
2022-10-23T10:08:44.281Z,27.25
2022-10-23T10:11:23.661Z,28.23
2022-10-23T10:14:01.973Z,29.05
2022-10-23T10:16:44.277Z,28.13
2022-10-23T10:19:54.433Z,28.20
2022-10-23T10:22:39.471Z,25.98
2022-10-23T10:28:04.435Z,28.92
2022-10-23T10:31:11.307Z,29.05
2022-10-23T10:34:12.486Z,29.05
2022-10-23T10:36:54.852Z,28.67
2022-10-23T10:39:44.448Z,29.67
2022-10-23T10:42:23.335Z,28.35
2022-10-23T10:45:08.676Z,28.88
2022-10-23T10:48:03.763Z,29.27
2022-10-23T10:50:59.394Z,28.73
2022-10-23T10:53:47.337Z,31.05
2022-10-23T10:56:17.701Z,29.10
2022-10-23T10:58:53.242Z,29.15
2022-10-23T11:01:27.556Z,30.73
2022-10-23T11:04:06.999Z,35.38
2022-10-23T11:06:37.254Z,33.50
2022-10-23T11:09:38.366Z,34.20
2022-10-23T11:12:05.696Z,32.30
2022-10-23T11:14:34.810Z,34.03
2022-10-23T11:17:24.392Z,35.28
2022-10-23T11:20:05.230Z,29.63
2022-10-23T11:22:51.567Z,26.95
2022-10-23T11:25:28.924Z,25.38
2022-10-23T11:28:28.675Z,23.25
2022-10-23T11:31:33.835Z,24.33
2022-10-23T11:34:19.379Z,23.80
2022-10-23T11:36:58.545Z,26.63
2022-10-23T11:39:30.961Z,29.73
2022-10-23T11:42:05.831Z,30.25
2022-10-23T11:44:45.957Z,25.98
2022-10-23T11:48:05.274Z,25.17
2022-10-23T11:51:00.340Z,24.40
2022-10-23T11:53:33.062Z,24.77
2022-10-23T11:56:20.461Z,32.28
2022-10-23T11:59:27.701Z,28.52
2022-10-23T12:02:00.968Z,38.33
2022-10-23T12:04:50.437Z,30.00
2022-10-23T12:07:25.403Z,30.38
2022-10-23T12:10:02.135Z,25.98
2022-10-23T12:12:40.899Z,24.88
2022-10-23T12:15:19.138Z,29.33
2022-10-23T12:17:48.672Z,27.38
2022-10-23T12:20:29.431Z,29.05
2022-10-23T12:23:21.388Z,28.27
2022-10-23T12:26:12.805Z,25.77
2022-10-23T12:28:49.222Z,25.50
2022-10-23T12:31:52.278Z,26.30
2022-10-23T12:34:28.185Z,28.17
2022-10-23T12:37:21.842Z,30.83
2022-10-23T12:39:56.845Z,28.25
2022-10-23T12:42:29.163Z,34.00
2022-10-23T12:45:20.510Z,30.25
2022-10-23T12:47:49.249Z,31.70
2022-10-23T12:50:25.584Z,28.08
2022-10-23T12:53:04.739Z,25.75
2022-10-23T12:55:57.350Z,26.77
2022-10-23T12:58:32.138Z,25.95
2022-10-23T13:01:05.352Z,27.52
2022-10-23T13:03:35.704Z,26.30
2022-10-23T13:06:05.382Z,27.73
2022-10-23T13:08:42.231Z,26.55
2022-10-23T13:11:35.101Z,27.92
2022-10-23T13:14:27.356Z,29.85
2022-10-23T13:17:02.379Z,33.38
2022-10-23T13:19:30.366Z,40.97
2022-10-23T13:21:58.704Z,45.35
2022-10-23T13:24:28.711Z,38.90
2022-10-23T13:26:57.441Z,40.42
2022-10-23T13:29:30.054Z,34.65
2022-10-23T13:31:58.281Z,30.05
2022-10-23T13:34:30.604Z,33.20
2022-10-23T13:37:04.102Z,29.98
2022-10-23T13:39:33.980Z,29.50
2022-10-23T13:42:11.902Z,33.30
2022-10-23T13:44:39.629Z,28.55
2022-10-23T13:47:11.194Z,28.75
2022-10-23T13:49:39.442Z,29.77
2022-10-23T13:52:12.735Z,28.25
2022-10-23T13:54:40.247Z,24.42
2022-10-23T13:57:13.718Z,21.17
2022-10-23T13:59:43.722Z,32.97
2022-10-23T14:02:20.770Z,35.80
2022-10-23T14:04:50.086Z,45.47
2022-10-23T14:07:17.329Z,24.20
2022-10-23T14:09:45.081Z,29.00
2022-10-23T14:12:12.497Z,29.23
2022-10-23T14:14:39.943Z,27.58
2022-10-23T14:17:07.361Z,29.15
2022-10-23T14:22:11.711Z,32.20
2022-10-23T14:24:39.387Z,40.55
2022-10-23T14:27:06.598Z,36.17
2022-10-23T14:29:34.445Z,64.70
2022-10-23T14:32:01.675Z,51.85
2022-10-23T14:34:29.260Z,45.47
2022-10-23T14:37:08.083Z,67.15
2022-10-23T14:39:36.310Z,64.63
2022-10-23T14:42:03.802Z,58.40
2022-10-23T14:44:33.814Z,43.00
2022-10-23T14:47:03.093Z,32.80
2022-10-23T14:49:31.664Z,52.97
2022-10-23T14:52:00.922Z,49.35
2022-10-23T14:54:35.222Z,46.08
2022-10-23T14:57:03.476Z,40.78
2022-10-23T14:59:31.051Z,44.53
2022-10-23T15:01:58.582Z,57.08
2022-10-23T15:04:26.155Z,62.28
2022-10-23T15:06:53.435Z,178.85
2022-10-23T15:09:20.954Z,258.88
2022-10-23T15:11:48.242Z,188.02
2022-10-23T15:14:26.405Z,140.80
2022-10-23T15:16:53.587Z,103.68
2022-10-23T15:19:22.466Z,116.03
2022-10-23T15:21:50.241Z,116.88
2022-10-23T15:24:22.145Z,123.68
2022-10-23T15:26:51.608Z,132.02
2022-10-23T15:29:23.065Z,121.88
2022-10-23T15:31:57.722Z,140.18
2022-10-23T15:36:54.706Z,59.80
2022-10-23T15:39:25.437Z,55.95
2022-10-23T15:41:55.500Z,54.47
2022-10-23T15:44:25.764Z,58.92
2022-10-23T15:46:53.275Z,66.55
2022-10-23T15:49:20.835Z,87.22
2022-10-23T15:51:48.224Z,81.95
2022-10-23T15:54:19.166Z,102.80
2022-10-23T15:56:49.320Z,101.40
2022-10-23T15:59:19.257Z,89.68
2022-10-23T16:01:46.988Z,99.80
2022-10-23T16:04:16.178Z,99.20
2022-10-23T16:06:45.028Z,136.70
2022-10-23T16:09:13.100Z,145.57
2022-10-23T16:11:42.011Z,141.82
2022-10-23T16:14:13.957Z,138.73
2022-10-23T16:16:41.709Z,138.02
2022-10-23T16:19:11.492Z,97.25
2022-10-23T16:21:38.776Z,81.60
2022-10-23T16:24:08.879Z,75.82
2022-10-23T16:26:37.127Z,70.90
2022-10-23T16:29:07.373Z,88.05
2022-10-23T16:31:37.124Z,112.97
2022-10-23T16:34:05.607Z,94.90
2022-10-23T16:36:34.172Z,88.68
2022-10-23T16:39:09.154Z,99.53
2022-10-23T16:41:55.029Z,91.43
2022-10-23T16:44:25.812Z,109.13
2022-10-23T16:47:02.290Z,81.97
2022-10-23T16:49:32.230Z,58.75
2022-10-23T16:51:59.454Z,57.65
2022-10-23T16:54:26.861Z,98.60
2022-10-23T16:56:54.153Z,103.00
2022-10-23T16:59:21.547Z,102.35
2022-10-23T17:01:49.240Z,66.57
2022-10-23T17:04:16.789Z,61.92
2022-10-23T17:06:46.973Z,63.88
2022-10-23T17:09:15.421Z,61.00
2022-10-23T17:11:45.026Z,75.32
2022-10-23T17:14:16.979Z,71.45
2022-10-23T17:16:45.594Z,81.93
2022-10-23T17:19:33.137Z,70.20
2022-10-23T17:22:01.648Z,58.25
2022-10-23T17:24:29.163Z,71.70
2022-10-23T17:26:56.988Z,87.25
2022-10-23T17:29:24.493Z,65.55
2022-10-23T17:31:51.850Z,63.72
2022-10-23T17:34:22.253Z,52.30
2022-10-23T17:36:52.147Z,55.60
2022-10-23T17:39:23.082Z,63.85
2022-10-23T17:41:54.287Z,71.25
2022-10-23T17:44:22.284Z,77.95
2022-10-23T17:46:53.879Z,63.53
2022-10-23T17:49:24.880Z,74.07
2022-10-23T17:51:56.684Z,101.53
2022-10-23T17:54:25.177Z,87.95
2022-10-23T17:56:52.351Z,90.25
2022-10-23T17:59:19.935Z,64.13
2022-10-23T18:01:48.496Z,84.88
2022-10-23T18:04:18.528Z,56.45
2022-10-23T18:06:51.149Z,80.03
2022-10-23T18:09:19.136Z,87.47
2022-10-23T18:11:49.419Z,96.25
2022-10-23T18:14:18.959Z,77.82
2022-10-23T18:16:46.544Z,73.68
2022-10-23T18:19:15.541Z,66.30
2022-10-23T18:21:42.669Z,78.28
2022-10-23T18:24:13.550Z,62.95
2022-10-23T18:26:42.246Z,74.47
2022-10-23T18:29:11.757Z,70.43
2022-10-23T18:31:39.280Z,74.45
2022-10-23T18:34:12.420Z,59.42
2022-10-23T18:36:41.170Z,74.78
2022-10-23T18:39:12.369Z,73.82
2022-10-23T18:41:41.536Z,61.30
2022-10-23T18:44:13.910Z,61.67
2022-10-23T18:46:40.961Z,63.45
2022-10-23T18:49:08.475Z,61.53
2022-10-23T18:51:36.997Z,65.95
2022-10-23T18:54:08.449Z,47.55
2022-10-23T18:56:36.204Z,54.80
2022-10-23T18:59:05.528Z,47.78
2022-10-23T19:01:33.817Z,62.83
2022-10-23T19:04:03.062Z,76.35
2022-10-23T19:06:31.332Z,54.83
2022-10-23T19:09:01.483Z,61.53
2022-10-23T19:11:29.186Z,59.80
2022-10-23T19:13:56.808Z,66.20
2022-10-23T19:16:36.066Z,53.95
2022-10-23T19:19:22.765Z,60.10
2022-10-23T19:21:50.581Z,57.85
2022-10-23T19:24:25.843Z,59.88
2022-10-23T19:26:52.935Z,42.53
2022-10-23T19:29:23.267Z,42.42
2022-10-23T19:31:50.673Z,40.88
2022-10-23T19:34:20.159Z,46.63
2022-10-23T19:36:48.622Z,45.08
2022-10-23T19:39:16.568Z,42.28
2022-10-23T19:41:43.780Z,36.08
2022-10-23T19:44:12.979Z,35.88
2022-10-23T19:46:40.023Z,45.70
2022-10-23T19:49:08.830Z,39.78
2022-10-23T19:51:36.355Z,44.95
2022-10-23T19:54:04.117Z,44.50
2022-10-23T19:56:31.857Z,55.63
2022-10-23T19:58:59.038Z,51.72
2022-10-23T20:01:26.228Z,71.63
2022-10-23T20:03:55.495Z,49.55
2022-10-23T20:06:25.892Z,42.50
2022-10-23T20:08:53.709Z,33.30
2022-10-23T20:11:28.210Z,38.20
2022-10-23T20:13:59.140Z,32.25
2022-10-23T20:16:29.725Z,31.42
2022-10-23T20:18:58.070Z,33.55
2022-10-23T20:21:25.525Z,40.83
2022-10-23T20:23:52.908Z,43.10
2022-10-23T20:26:23.281Z,35.92
2022-10-23T20:28:55.157Z,33.55
2022-10-23T20:31:25.382Z,37.75
2022-10-23T20:33:53.044Z,49.85
2022-10-23T20:36:25.328Z,41.40
2022-10-23T20:38:53.300Z,37.55
2022-10-23T20:41:21.006Z,37.90
2022-10-23T20:43:48.476Z,34.85
2022-10-23T20:46:15.742Z,36.38
2022-10-23T20:48:45.004Z,37.38
2022-10-23T20:51:14.617Z,34.53
2022-10-23T20:53:43.448Z,32.53
2022-10-23T20:56:23.565Z,38.63
2022-10-23T20:58:50.889Z,35.67
2022-10-23T21:01:18.658Z,35.90
2022-10-23T21:03:53.020Z,33.35
2022-10-23T21:06:20.297Z,36.83
2022-10-23T21:08:47.674Z,35.30
2022-10-23T21:11:17.451Z,37.38
2022-10-23T21:13:45.112Z,42.10
2022-10-23T21:16:18.308Z,41.03
2022-10-23T21:18:46.865Z,38.30
2022-10-23T21:21:19.287Z,34.67
2022-10-23T21:23:48.483Z,45.55
2022-10-23T21:26:17.502Z,35.72
2022-10-23T21:28:56.125Z,39.38
2022-10-23T21:31:33.866Z,35.25
2022-10-23T21:34:01.313Z,33.33
2022-10-23T21:36:31.055Z,33.83
2022-10-23T21:39:01.588Z,45.50
2022-10-23T21:41:32.337Z,36.67
2022-10-23T21:44:03.751Z,41.17
2022-10-23T21:46:33.072Z,40.95
2022-10-23T21:49:01.000Z,40.25
2022-10-23T21:51:38.206Z,43.33
2022-10-23T21:54:07.556Z,53.35
2022-10-23T21:56:43.673Z,32.20
2022-10-23T21:59:13.452Z,30.83
2022-10-23T22:01:43.156Z,39.30
2022-10-23T22:04:14.055Z,29.75
2022-10-23T22:06:45.378Z,30.08
2022-10-23T22:09:14.966Z,34.67
2022-10-23T22:11:42.443Z,34.53
2022-10-23T22:14:09.626Z,34.17
2022-10-23T22:16:36.682Z,41.75
2022-10-23T22:19:04.349Z,55.08
2022-10-23T22:21:31.960Z,37.95
2022-10-23T22:24:00.449Z,45.95
2022-10-23T22:26:33.819Z,39.95
2022-10-23T22:29:05.385Z,55.67
2022-10-23T22:31:34.146Z,28.60
2022-10-23T22:34:13.202Z,24.65
2022-10-23T22:36:50.034Z,35.15
2022-10-23T22:39:17.399Z,33.30
2022-10-23T22:41:44.410Z,34.83
2022-10-23T22:44:12.282Z,27.80
2022-10-23T22:46:39.229Z,41.05
2022-10-23T22:51:39.669Z,25.85
2022-10-23T22:54:07.077Z,26.73
2022-10-23T22:56:34.599Z,40.17
2022-10-23T22:59:02.454Z,32.78
2022-10-23T23:01:36.842Z,24.88
2022-10-23T23:06:51.430Z,25.77
2022-10-23T23:09:18.803Z,22.73
2022-10-23T23:11:51.799Z,23.05
2022-10-23T23:14:23.681Z,23.30
2022-10-23T23:16:54.522Z,24.73
2022-10-23T23:19:23.233Z,22.13
2022-10-23T23:21:50.581Z,24.17
2022-10-23T23:24:17.906Z,27.02
2022-10-23T23:26:44.879Z,25.80
2022-10-23T23:29:12.491Z,25.77
2022-10-23T23:31:39.996Z,27.95
2022-10-23T23:34:07.177Z,32.55
2022-10-23T23:36:34.956Z,31.13
2022-10-23T23:41:34.703Z,34.08
2022-10-23T23:44:01.909Z,29.52
2022-10-23T23:46:28.937Z,29.35
2022-10-23T23:48:56.179Z,29.83
2022-10-23T23:51:25.737Z,28.90
2022-10-23T23:53:53.781Z,28.83
2022-10-23T23:56:21.794Z,29.35
2022-10-23T23:58:49.031Z,28.77
